sensor_id;sensor_type;location;lat;lon;timestamp;P1;durP1;ratioP1;P2;durP2;ratioP2
22687;SDS011;11511;51.514;7.080;2023-04-15T00:01:21;13.40;;;8.68;;
22687;SDS011;11511;51.514;7.080;2023-04-15T00:03:49;12.38;;;9.15;;
22687;SDS011;11511;51.514;7.080;2023-04-15T00:06:21;13.43;;;8.73;;
22687;SDS011;11511;51.514;7.080;2023-04-15T00:08:47;14.27;;;8.77;;
22687;SDS011;11511;51.514;7.080;2023-04-15T00:11:14;13.55;;;9.02;;
22687;SDS011;11511;51.514;7.080;2023-04-15T00:13:41;12.80;;;8.93;;
22687;SDS011;11511;51.514;7.080;2023-04-15T00:16:07;17.55;;;10.30;;
22687;SDS011;11511;51.514;7.080;2023-04-15T00:18:33;12.50;;;9.05;;
22687;SDS011;11511;51.514;7.080;2023-04-15T00:20:59;13.98;;;9.80;;
22687;SDS011;11511;51.514;7.080;2023-04-15T00:23:25;12.82;;;9.00;;
22687;SDS011;11511;51.514;7.080;2023-04-15T00:25:50;13.23;;;9.38;;
22687;SDS011;11511;51.514;7.080;2023-04-15T00:28:16;14.45;;;9.40;;
22687;SDS011;11511;51.514;7.080;2023-04-15T00:30:42;17.40;;;11.50;;
22687;SDS011;11511;51.514;7.080;2023-04-15T00:33:07;21.85;;;12.48;;
22687;SDS011;11511;51.514;7.080;2023-04-15T00:35:33;20.95;;;12.25;;
22687;SDS011;11511;51.514;7.080;2023-04-15T00:38:00;24.70;;;12.25;;
22687;SDS011;11511;51.514;7.080;2023-04-15T00:40:26;20.15;;;12.68;;
22687;SDS011;11511;51.514;7.080;2023-04-15T00:42:51;19.67;;;12.13;;
22687;SDS011;11511;51.514;7.080;2023-04-15T00:45:17;17.60;;;11.98;;
22687;SDS011;11511;51.514;7.080;2023-04-15T00:47:43;19.35;;;12.43;;
22687;SDS011;11511;51.514;7.080;2023-04-15T00:50:09;19.95;;;12.38;;
22687;SDS011;11511;51.514;7.080;2023-04-15T00:52:36;15.77;;;11.98;;
22687;SDS011;11511;51.514;7.080;2023-04-15T00:55:03;16.25;;;11.55;;
22687;SDS011;11511;51.514;7.080;2023-04-15T00:57:29;17.58;;;12.55;;
22687;SDS011;11511;51.514;7.080;2023-04-15T00:59:55;21.10;;;13.20;;
22687;SDS011;11511;51.514;7.080;2023-04-15T01:02:22;17.30;;;12.98;;
22687;SDS011;11511;51.514;7.080;2023-04-15T01:04:48;18.52;;;12.45;;
22687;SDS011;11511;51.514;7.080;2023-04-15T01:07:13;16.70;;;11.57;;
22687;SDS011;11511;51.514;7.080;2023-04-15T01:09:39;17.75;;;11.93;;
22687;SDS011;11511;51.514;7.080;2023-04-15T01:12:05;17.13;;;12.55;;
22687;SDS011;11511;51.514;7.080;2023-04-15T01:14:32;18.50;;;11.60;;
22687;SDS011;11511;51.514;7.080;2023-04-15T01:16:58;18.35;;;11.40;;
22687;SDS011;11511;51.514;7.080;2023-04-15T01:19:23;16.35;;;11.10;;
22687;SDS011;11511;51.514;7.080;2023-04-15T01:21:49;21.70;;;11.45;;
22687;SDS011;11511;51.514;7.080;2023-04-15T01:24:14;18.27;;;11.32;;
22687;SDS011;11511;51.514;7.080;2023-04-15T01:26:42;18.10;;;11.60;;
22687;SDS011;11511;51.514;7.080;2023-04-15T01:29:08;16.08;;;9.85;;
22687;SDS011;11511;51.514;7.080;2023-04-15T01:31:33;16.33;;;10.80;;
22687;SDS011;11511;51.514;7.080;2023-04-15T01:33:59;16.55;;;10.63;;
22687;SDS011;11511;51.514;7.080;2023-04-15T01:36:25;17.08;;;11.00;;
22687;SDS011;11511;51.514;7.080;2023-04-15T01:38:50;16.65;;;10.65;;
22687;SDS011;11511;51.514;7.080;2023-04-15T01:41:16;14.50;;;11.02;;
22687;SDS011;11511;51.514;7.080;2023-04-15T01:43:47;15.40;;;10.70;;
22687;SDS011;11511;51.514;7.080;2023-04-15T01:46:12;16.80;;;10.68;;
22687;SDS011;11511;51.514;7.080;2023-04-15T01:48:38;14.57;;;10.30;;
22687;SDS011;11511;51.514;7.080;2023-04-15T01:51:03;17.58;;;10.75;;
22687;SDS011;11511;51.514;7.080;2023-04-15T01:53:29;17.42;;;11.27;;
22687;SDS011;11511;51.514;7.080;2023-04-15T01:55:54;15.40;;;10.88;;
22687;SDS011;11511;51.514;7.080;2023-04-15T01:58:20;15.80;;;10.10;;
22687;SDS011;11511;51.514;7.080;2023-04-15T02:00:46;16.88;;;10.75;;
22687;SDS011;11511;51.514;7.080;2023-04-15T02:03:11;15.57;;;10.63;;
22687;SDS011;11511;51.514;7.080;2023-04-15T02:05:37;18.17;;;10.88;;
22687;SDS011;11511;51.514;7.080;2023-04-15T02:08:02;21.10;;;11.55;;
22687;SDS011;11511;51.514;7.080;2023-04-15T02:10:28;17.77;;;11.68;;
22687;SDS011;11511;51.514;7.080;2023-04-15T02:12:53;17.30;;;10.57;;
22687;SDS011;11511;51.514;7.080;2023-04-15T02:15:18;14.75;;;10.88;;
22687;SDS011;11511;51.514;7.080;2023-04-15T02:17:44;15.80;;;11.35;;
22687;SDS011;11511;51.514;7.080;2023-04-15T02:20:14;14.82;;;10.60;;
22687;SDS011;11511;51.514;7.080;2023-04-15T02:22:40;15.05;;;11.20;;
22687;SDS011;11511;51.514;7.080;2023-04-15T02:25:06;18.05;;;11.43;;
22687;SDS011;11511;51.514;7.080;2023-04-15T02:27:32;17.98;;;11.50;;
22687;SDS011;11511;51.514;7.080;2023-04-15T02:29:57;15.43;;;11.40;;
22687;SDS011;11511;51.514;7.080;2023-04-15T02:32:23;20.17;;;11.23;;
22687;SDS011;11511;51.514;7.080;2023-04-15T02:34:48;16.50;;;11.38;;
22687;SDS011;11511;51.514;7.080;2023-04-15T02:37:13;17.60;;;11.13;;
22687;SDS011;11511;51.514;7.080;2023-04-15T02:39:40;18.00;;;11.43;;
22687;SDS011;11511;51.514;7.080;2023-04-15T02:42:05;16.38;;;11.38;;
22687;SDS011;11511;51.514;7.080;2023-04-15T02:44:31;18.13;;;11.40;;
22687;SDS011;11511;51.514;7.080;2023-04-15T02:46:57;15.68;;;11.32;;
22687;SDS011;11511;51.514;7.080;2023-04-15T02:49:23;15.90;;;10.20;;
22687;SDS011;11511;51.514;7.080;2023-04-15T02:51:49;17.40;;;10.88;;
22687;SDS011;11511;51.514;7.080;2023-04-15T02:54:18;17.55;;;11.18;;
22687;SDS011;11511;51.514;7.080;2023-04-15T02:56:46;15.13;;;10.57;;
22687;SDS011;11511;51.514;7.080;2023-04-15T02:59:12;16.10;;;11.10;;
22687;SDS011;11511;51.514;7.080;2023-04-15T03:01:37;19.05;;;11.77;;
22687;SDS011;11511;51.514;7.080;2023-04-15T03:04:03;17.70;;;11.23;;
22687;SDS011;11511;51.514;7.080;2023-04-15T03:06:28;15.02;;;11.02;;
22687;SDS011;11511;51.514;7.080;2023-04-15T03:08:54;17.17;;;11.27;;
22687;SDS011;11511;51.514;7.080;2023-04-15T03:11:20;17.33;;;10.75;;
22687;SDS011;11511;51.514;7.080;2023-04-15T03:13:46;17.33;;;11.60;;
22687;SDS011;11511;51.514;7.080;2023-04-15T03:16:12;16.83;;;11.43;;
22687;SDS011;11511;51.514;7.080;2023-04-15T03:18:37;17.42;;;11.63;;
22687;SDS011;11511;51.514;7.080;2023-04-15T03:21:02;18.27;;;11.38;;
22687;SDS011;11511;51.514;7.080;2023-04-15T03:23:29;17.25;;;11.73;;
22687;SDS011;11511;51.514;7.080;2023-04-15T03:25:55;19.75;;;11.60;;
22687;SDS011;11511;51.514;7.080;2023-04-15T03:28:21;17.60;;;11.18;;
22687;SDS011;11511;51.514;7.080;2023-04-15T03:30:47;17.25;;;11.30;;
22687;SDS011;11511;51.514;7.080;2023-04-15T03:33:12;15.70;;;11.40;;
22687;SDS011;11511;51.514;7.080;2023-04-15T03:35:37;21.25;;;11.68;;
22687;SDS011;11511;51.514;7.080;2023-04-15T03:38:03;15.82;;;10.27;;
22687;SDS011;11511;51.514;7.080;2023-04-15T03:40:28;17.60;;;10.73;;
22687;SDS011;11511;51.514;7.080;2023-04-15T03:42:54;15.98;;;11.07;;
22687;SDS011;11511;51.514;7.080;2023-04-15T03:45:19;16.08;;;11.63;;
22687;SDS011;11511;51.514;7.080;2023-04-15T03:47:45;19.30;;;12.00;;
22687;SDS011;11511;51.514;7.080;2023-04-15T03:50:10;18.15;;;11.15;;
22687;SDS011;11511;51.514;7.080;2023-04-15T03:52:36;17.65;;;10.80;;
22687;SDS011;11511;51.514;7.080;2023-04-15T03:55:01;18.40;;;11.23;;
22687;SDS011;11511;51.514;7.080;2023-04-15T03:57:27;18.25;;;11.65;;
22687;SDS011;11511;51.514;7.080;2023-04-15T03:59:52;18.35;;;11.52;;
22687;SDS011;11511;51.514;7.080;2023-04-15T04:02:17;18.08;;;12.25;;
22687;SDS011;11511;51.514;7.080;2023-04-15T04:04:42;18.13;;;12.50;;
22687;SDS011;11511;51.514;7.080;2023-04-15T04:07:13;18.17;;;12.90;;
22687;SDS011;11511;51.514;7.080;2023-04-15T04:09:39;17.35;;;12.13;;
22687;SDS011;11511;51.514;7.080;2023-04-15T04:12:06;20.13;;;12.93;;
22687;SDS011;11511;51.514;7.080;2023-04-15T04:14:31;20.52;;;12.40;;
22687;SDS011;11511;51.514;7.080;2023-04-15T04:16:56;18.30;;;12.85;;
22687;SDS011;11511;51.514;7.080;2023-04-15T04:19:22;16.65;;;12.43;;
22687;SDS011;11511;51.514;7.080;2023-04-15T04:21:47;16.92;;;12.57;;
22687;SDS011;11511;51.514;7.080;2023-04-15T04:24:12;18.60;;;12.77;;
22687;SDS011;11511;51.514;7.080;2023-04-15T04:26:37;19.48;;;13.50;;
22687;SDS011;11511;51.514;7.080;2023-04-15T04:29:03;18.70;;;13.48;;
22687;SDS011;11511;51.514;7.080;2023-04-15T04:31:28;21.52;;;13.90;;
22687;SDS011;11511;51.514;7.080;2023-04-15T04:33:53;20.10;;;13.98;;
22687;SDS011;11511;51.514;7.080;2023-04-15T04:36:19;20.98;;;14.68;;
22687;SDS011;11511;51.514;7.080;2023-04-15T04:38:45;19.80;;;14.05;;
22687;SDS011;11511;51.514;7.080;2023-04-15T04:41:10;22.55;;;14.13;;
22687;SDS011;11511;51.514;7.080;2023-04-15T04:43:35;20.65;;;14.57;;
22687;SDS011;11511;51.514;7.080;2023-04-15T04:46:00;22.67;;;14.75;;
22687;SDS011;11511;51.514;7.080;2023-04-15T04:48:26;21.02;;;14.25;;
22687;SDS011;11511;51.514;7.080;2023-04-15T04:50:51;21.20;;;13.93;;
22687;SDS011;11511;51.514;7.080;2023-04-15T04:53:17;22.40;;;15.18;;
22687;SDS011;11511;51.514;7.080;2023-04-15T04:55:42;20.08;;;14.77;;
22687;SDS011;11511;51.514;7.080;2023-04-15T04:58:08;23.25;;;15.65;;
22687;SDS011;11511;51.514;7.080;2023-04-15T05:00:33;20.40;;;14.63;;
22687;SDS011;11511;51.514;7.080;2023-04-15T05:02:58;24.50;;;15.50;;
22687;SDS011;11511;51.514;7.080;2023-04-15T05:05:24;21.33;;;14.85;;
22687;SDS011;11511;51.514;7.080;2023-04-15T05:07:50;23.88;;;15.60;;
22687;SDS011;11511;51.514;7.080;2023-04-15T05:10:15;24.60;;;15.93;;
22687;SDS011;11511;51.514;7.080;2023-04-15T05:12:42;22.35;;;15.32;;
22687;SDS011;11511;51.514;7.080;2023-04-15T05:15:07;26.08;;;16.15;;
22687;SDS011;11511;51.514;7.080;2023-04-15T05:17:33;23.35;;;16.17;;
22687;SDS011;11511;51.514;7.080;2023-04-15T05:19:59;27.65;;;15.45;;
22687;SDS011;11511;51.514;7.080;2023-04-15T05:22:25;23.42;;;15.35;;
22687;SDS011;11511;51.514;7.080;2023-04-15T05:24:50;23.42;;;16.65;;
22687;SDS011;11511;51.514;7.080;2023-04-15T05:27:16;22.80;;;16.35;;
22687;SDS011;11511;51.514;7.080;2023-04-15T05:29:41;23.48;;;15.77;;
22687;SDS011;11511;51.514;7.080;2023-04-15T05:32:06;22.80;;;15.85;;
22687;SDS011;11511;51.514;7.080;2023-04-15T05:34:32;23.55;;;16.08;;
22687;SDS011;11511;51.514;7.080;2023-04-15T05:36:57;25.38;;;15.82;;
22687;SDS011;11511;51.514;7.080;2023-04-15T05:39:22;26.00;;;16.75;;
22687;SDS011;11511;51.514;7.080;2023-04-15T05:41:47;22.77;;;14.45;;
22687;SDS011;11511;51.514;7.080;2023-04-15T05:44:13;25.58;;;16.08;;
22687;SDS011;11511;51.514;7.080;2023-04-15T05:46:38;22.60;;;14.32;;
22687;SDS011;11511;51.514;7.080;2023-04-15T05:49:03;25.60;;;16.30;;
22687;SDS011;11511;51.514;7.080;2023-04-15T05:51:29;22.98;;;15.32;;
22687;SDS011;11511;51.514;7.080;2023-04-15T05:53:54;24.98;;;15.98;;
22687;SDS011;11511;51.514;7.080;2023-04-15T05:56:20;26.00;;;16.02;;
22687;SDS011;11511;51.514;7.080;2023-04-15T05:58:46;22.33;;;14.18;;
22687;SDS011;11511;51.514;7.080;2023-04-15T06:01:11;20.60;;;14.82;;
22687;SDS011;11511;51.514;7.080;2023-04-15T06:03:36;23.83;;;14.57;;
22687;SDS011;11511;51.514;7.080;2023-04-15T06:06:02;24.85;;;15.85;;
22687;SDS011;11511;51.514;7.080;2023-04-15T06:08:28;23.30;;;15.07;;
22687;SDS011;11511;51.514;7.080;2023-04-15T06:10:53;20.23;;;14.77;;
22687;SDS011;11511;51.514;7.080;2023-04-15T06:13:18;23.33;;;15.93;;
22687;SDS011;11511;51.514;7.080;2023-04-15T06:15:44;20.95;;;15.18;;
22687;SDS011;11511;51.514;7.080;2023-04-15T06:18:09;24.05;;;15.98;;
22687;SDS011;11511;51.514;7.080;2023-04-15T06:20:35;21.58;;;14.07;;
22687;SDS011;11511;51.514;7.080;2023-04-15T06:23:01;21.77;;;14.48;;
22687;SDS011;11511;51.514;7.080;2023-04-15T06:25:26;21.83;;;14.80;;
22687;SDS011;11511;51.514;7.080;2023-04-15T06:27:52;21.55;;;15.05;;
22687;SDS011;11511;51.514;7.080;2023-04-15T06:30:17;23.63;;;15.30;;
22687;SDS011;11511;51.514;7.080;2023-04-15T06:32:42;22.42;;;14.48;;
22687;SDS011;11511;51.514;7.080;2023-04-15T06:35:08;22.60;;;14.43;;
22687;SDS011;11511;51.514;7.080;2023-04-15T06:37:33;21.55;;;13.75;;
22687;SDS011;11511;51.514;7.080;2023-04-15T06:39:59;25.63;;;14.50;;
22687;SDS011;11511;51.514;7.080;2023-04-15T06:42:24;20.55;;;13.20;;
22687;SDS011;11511;51.514;7.080;2023-04-15T06:44:50;23.08;;;14.07;;
22687;SDS011;11511;51.514;7.080;2023-04-15T06:47:15;17.25;;;13.52;;
22687;SDS011;11511;51.514;7.080;2023-04-15T06:49:41;19.45;;;13.30;;
22687;SDS011;11511;51.514;7.080;2023-04-15T06:52:07;20.02;;;14.40;;
22687;SDS011;11511;51.514;7.080;2023-04-15T06:54:32;18.20;;;13.57;;
22687;SDS011;11511;51.514;7.080;2023-04-15T06:56:58;21.20;;;13.45;;
22687;SDS011;11511;51.514;7.080;2023-04-15T06:59:23;18.52;;;13.85;;
22687;SDS011;11511;51.514;7.080;2023-04-15T07:01:49;20.00;;;12.77;;
22687;SDS011;11511;51.514;7.080;2023-04-15T07:04:14;18.67;;;13.82;;
22687;SDS011;11511;51.514;7.080;2023-04-15T07:06:39;20.08;;;13.20;;
22687;SDS011;11511;51.514;7.080;2023-04-15T07:09:06;18.45;;;12.90;;
22687;SDS011;11511;51.514;7.080;2023-04-15T07:11:31;19.35;;;12.90;;
22687;SDS011;11511;51.514;7.080;2023-04-15T07:13:57;16.70;;;12.63;;
22687;SDS011;11511;51.514;7.080;2023-04-15T07:16:22;16.25;;;11.43;;
22687;SDS011;11511;51.514;7.080;2023-04-15T07:18:48;17.02;;;11.88;;
22687;SDS011;11511;51.514;7.080;2023-04-15T07:21:13;20.33;;;12.15;;
22687;SDS011;11511;51.514;7.080;2023-04-15T07:23:38;15.88;;;12.05;;
22687;SDS011;11511;51.514;7.080;2023-04-15T07:26:04;15.35;;;11.20;;
22687;SDS011;11511;51.514;7.080;2023-04-15T07:28:29;15.80;;;11.63;;
22687;SDS011;11511;51.514;7.080;2023-04-15T07:30:55;19.50;;;13.43;;
22687;SDS011;11511;51.514;7.080;2023-04-15T07:33:23;17.67;;;11.75;;
22687;SDS011;11511;51.514;7.080;2023-04-15T07:35:49;16.48;;;12.63;;
22687;SDS011;11511;51.514;7.080;2023-04-15T07:38:14;15.05;;;11.30;;
22687;SDS011;11511;51.514;7.080;2023-04-15T07:40:40;17.35;;;11.77;;
22687;SDS011;11511;51.514;7.080;2023-04-15T07:43:06;15.35;;;10.52;;
22687;SDS011;11511;51.514;7.080;2023-04-15T07:45:31;15.95;;;10.05;;
22687;SDS011;11511;51.514;7.080;2023-04-15T07:47:57;13.93;;;11.05;;
22687;SDS011;11511;51.514;7.080;2023-04-15T07:50:23;14.93;;;10.40;;
22687;SDS011;11511;51.514;7.080;2023-04-15T07:52:48;13.23;;;9.45;;
22687;SDS011;11511;51.514;7.080;2023-04-15T07:55:15;12.20;;;9.32;;
22687;SDS011;11511;51.514;7.080;2023-04-15T07:57:44;11.75;;;8.82;;
22687;SDS011;11511;51.514;7.080;2023-04-15T08:00:09;12.13;;;8.60;;
22687;SDS011;11511;51.514;7.080;2023-04-15T08:02:35;8.18;;;6.63;;
22687;SDS011;11511;51.514;7.080;2023-04-15T08:05:01;7.47;;;5.45;;
22687;SDS011;11511;51.514;7.080;2023-04-15T08:07:28;6.10;;;5.10;;
22687;SDS011;11511;51.514;7.080;2023-04-15T08:09:54;6.00;;;4.47;;
22687;SDS011;11511;51.514;7.080;2023-04-15T08:12:19;5.55;;;4.35;;
22687;SDS011;11511;51.514;7.080;2023-04-15T08:14:45;4.72;;;4.22;;
